createdAt,value
2022-11-13T00:00:15.624Z,55.73
2022-11-13T00:03:01.109Z,53.60
2022-11-13T00:05:46.798Z,55.80
2022-11-13T00:08:32.614Z,54.17
2022-11-13T00:11:19.697Z,58.33
2022-11-13T00:14:05.350Z,53.90
2022-11-13T00:16:50.771Z,58.87
2022-11-13T00:19:36.308Z,54.30
2022-11-13T00:22:21.980Z,53.40
2022-11-13T00:25:07.329Z,52.27
2022-11-13T00:27:52.743Z,52.27
2022-11-13T00:30:38.142Z,54.87
2022-11-13T00:33:45.443Z,49.83
2022-11-13T00:36:29.358Z,48.60
2022-11-13T00:39:14.627Z,55.27
2022-11-13T00:42:00.796Z,50.07
2022-11-13T00:44:46.011Z,49.93
2022-11-13T00:47:33.103Z,53.73
2022-11-13T00:50:18.605Z,49.53
2022-11-13T00:53:03.785Z,47.90
2022-11-13T00:55:49.156Z,47.87
2022-11-13T00:58:34.714Z,49.27
2022-11-13T01:01:20.430Z,49.57
2022-11-13T01:04:05.841Z,47.27
2022-11-13T01:06:51.086Z,56.30
2022-11-13T01:09:36.522Z,48.23
2022-11-13T01:12:21.990Z,48.87
2022-11-13T01:15:07.581Z,52.77
2022-11-13T01:17:55.171Z,50.67
2022-11-13T01:20:40.634Z,48.93
2022-11-13T01:23:26.313Z,45.77
2022-11-13T01:26:16.746Z,55.83
2022-11-13T01:29:02.265Z,47.23
2022-11-13T01:31:47.539Z,46.27
2022-11-13T01:34:33.367Z,50.00
2022-11-13T01:37:18.554Z,50.37
2022-11-13T01:40:04.336Z,51.30
2022-11-13T01:42:49.767Z,52.67
2022-11-13T01:45:53.904Z,53.50
2022-11-13T01:48:42.069Z,58.20
2022-11-13T01:51:36.277Z,51.03
2022-11-13T01:54:27.561Z,50.87
2022-11-13T01:57:14.891Z,50.83
2022-11-13T02:00:02.943Z,47.10
2022-11-13T02:02:48.252Z,47.07
2022-11-13T02:05:34.245Z,53.37
2022-11-13T02:08:19.717Z,51.43
2022-11-13T02:11:04.979Z,61.70
2022-11-13T02:13:50.884Z,50.53
2022-11-13T02:16:37.186Z,47.40
2022-11-13T02:19:34.915Z,51.00
2022-11-13T02:22:36.333Z,53.07
2022-11-13T02:25:22.118Z,52.67
2022-11-13T02:28:07.694Z,49.67
2022-11-13T02:30:52.938Z,52.83
2022-11-13T02:33:38.433Z,52.67
2022-11-13T02:36:25.638Z,49.07
2022-11-13T02:39:12.664Z,48.73
2022-11-13T02:41:58.015Z,46.37
2022-11-13T02:44:43.510Z,48.53
2022-11-13T02:47:29.212Z,45.77
2022-11-13T02:50:14.921Z,48.30
2022-11-13T02:53:00.291Z,48.07
2022-11-13T02:55:45.812Z,48.97
2022-11-13T02:58:32.020Z,54.90
2022-11-13T03:01:17.919Z,54.83
2022-11-13T03:04:03.212Z,50.93
2022-11-13T03:06:48.741Z,52.03
2022-11-13T03:09:34.044Z,54.50
2022-11-13T03:12:19.555Z,54.47
2022-11-13T03:15:06.002Z,44.53
2022-11-13T03:17:51.533Z,45.63
2022-11-13T03:20:37.518Z,51.27
2022-11-13T03:23:22.977Z,52.50
2022-11-13T03:26:10.374Z,51.13
2022-11-13T03:28:56.039Z,50.53
2022-11-13T03:31:41.554Z,55.80
2022-11-13T03:34:27.035Z,57.40
2022-11-13T03:37:12.389Z,52.77
2022-11-13T03:39:57.624Z,51.03
2022-11-13T03:42:43.117Z,55.83
2022-11-13T03:45:28.530Z,44.53
2022-11-13T03:48:14.578Z,45.87
2022-11-13T03:50:59.991Z,45.43
2022-11-13T03:53:45.735Z,41.67
2022-11-13T03:56:31.219Z,33.20
2022-11-13T03:59:16.382Z,39.27
2022-11-13T04:02:02.162Z,46.20
2022-11-13T04:04:47.465Z,47.13
2022-11-13T04:07:32.975Z,44.00
2022-11-13T04:10:18.738Z,46.63
2022-11-13T04:13:04.056Z,45.40
2022-11-13T04:15:49.669Z,46.03
2022-11-13T04:18:35.537Z,47.80
2022-11-13T04:21:20.717Z,47.70
2022-11-13T04:24:06.460Z,47.30
2022-11-13T04:26:51.925Z,44.07
2022-11-13T04:29:37.548Z,42.90
2022-11-13T04:32:23.120Z,46.97
2022-11-13T04:35:09.217Z,41.90
2022-11-13T04:37:55.050Z,39.73
2022-11-13T04:40:40.896Z,41.50
2022-11-13T04:43:26.309Z,37.03
2022-11-13T04:46:11.858Z,38.90
2022-11-13T04:48:57.355Z,37.67
2022-11-13T04:51:42.806Z,37.03
2022-11-13T04:54:29.076Z,37.73
2022-11-13T04:57:14.806Z,35.87
2022-11-13T05:00:00.238Z,38.10
2022-11-13T05:02:45.805Z,36.43
2022-11-13T05:05:31.432Z,42.17
2022-11-13T05:08:16.927Z,42.37
2022-11-13T05:11:02.933Z,44.03
2022-11-13T05:13:48.342Z,44.40
2022-11-13T05:16:35.182Z,47.23
2022-11-13T05:19:20.811Z,45.27
2022-11-13T05:22:06.534Z,47.53
2022-11-13T05:24:52.082Z,51.97
2022-11-13T05:27:37.536Z,53.23
2022-11-13T05:30:23.137Z,52.80
2022-11-13T05:33:09.171Z,53.83
2022-11-13T05:35:54.394Z,52.20
2022-11-13T05:38:39.944Z,56.33
2022-11-13T05:41:25.961Z,60.63
2022-11-13T05:44:11.283Z,60.77
2022-11-13T05:46:56.878Z,64.87
2022-11-13T05:49:42.378Z,67.47
2022-11-13T05:52:27.623Z,63.93
2022-11-13T05:55:12.997Z,70.93
2022-11-13T05:57:58.890Z,68.37
2022-11-13T06:00:44.160Z,76.93
2022-11-13T06:03:29.652Z,72.77
2022-11-13T06:06:16.463Z,78.60
2022-11-13T06:09:02.631Z,84.37
2022-11-13T06:11:48.877Z,82.67
2022-11-13T06:14:34.475Z,80.77
2022-11-13T06:17:20.025Z,81.53
2022-11-13T06:20:05.573Z,75.80
2022-11-13T06:22:50.945Z,77.97
2022-11-13T06:25:36.226Z,77.07
2022-11-13T06:28:21.844Z,78.70
2022-11-13T06:31:08.623Z,86.93
2022-11-13T06:33:54.250Z,75.83
2022-11-13T06:36:39.661Z,86.87
2022-11-13T06:39:25.129Z,71.17
2022-11-13T06:42:10.462Z,66.90
2022-11-13T06:44:55.657Z,75.53
2022-11-13T06:47:40.862Z,70.00
2022-11-13T06:50:26.403Z,68.10
2022-11-13T06:53:11.690Z,70.27
2022-11-13T06:55:57.522Z,63.67
2022-11-13T06:58:44.023Z,54.90
2022-11-13T07:01:29.654Z,55.43
2022-11-13T07:04:14.975Z,60.33
2022-11-13T07:07:00.557Z,64.40
2022-11-13T07:09:46.115Z,60.53
2022-11-13T07:12:31.461Z,56.23
2022-11-13T07:15:17.231Z,62.30
2022-11-13T07:18:03.603Z,59.00
2022-11-13T07:20:48.967Z,59.53
2022-11-13T07:23:35.668Z,59.37
2022-11-13T07:26:20.944Z,65.23
2022-11-13T07:29:06.250Z,58.60
2022-11-13T07:31:51.624Z,63.13
2022-11-13T07:34:37.067Z,59.83
2022-11-13T07:37:22.790Z,56.00
2022-11-13T07:40:08.679Z,64.00
2022-11-13T07:42:58.870Z,51.10
2022-11-13T07:45:44.415Z,51.43
2022-11-13T07:48:30.507Z,63.83
2022-11-13T07:51:16.093Z,62.00
2022-11-13T07:54:01.528Z,68.00
2022-11-13T07:56:47.534Z,55.87
2022-11-13T07:59:32.966Z,56.93
2022-11-13T08:02:21.175Z,64.23
2022-11-13T08:05:10.987Z,57.33
2022-11-13T08:07:56.243Z,63.20
2022-11-13T08:10:41.738Z,55.03
2022-11-13T08:13:26.941Z,61.27
2022-11-13T08:16:12.430Z,52.57
2022-11-13T08:18:57.726Z,55.67
2022-11-13T08:21:43.371Z,51.13
2022-11-13T08:24:28.725Z,54.10
2022-11-13T08:27:14.386Z,57.57
2022-11-13T08:29:59.949Z,55.73
2022-11-13T08:32:45.618Z,68.33
2022-11-13T08:35:31.510Z,63.13
2022-11-13T08:38:17.105Z,62.13
2022-11-13T08:41:08.690Z,65.20
2022-11-13T08:43:55.003Z,59.30
2022-11-13T08:46:40.742Z,61.27
2022-11-13T08:49:26.233Z,67.50
2022-11-13T08:52:11.665Z,64.57
2022-11-13T08:54:57.001Z,65.70
2022-11-13T08:57:42.174Z,63.37
2022-11-13T09:00:28.901Z,69.03
2022-11-13T09:03:14.267Z,61.97
2022-11-13T09:05:59.742Z,72.00
2022-11-13T09:08:45.279Z,87.43
2022-11-13T09:11:30.655Z,81.37
2022-11-13T09:14:16.315Z,79.60
2022-11-13T09:17:02.110Z,79.77
2022-11-13T09:19:47.732Z,75.37
2022-11-13T09:22:34.135Z,80.30
2022-11-13T09:25:20.102Z,90.37
2022-11-13T09:28:06.156Z,71.53
2022-11-13T09:30:51.706Z,74.00
2022-11-13T09:33:36.926Z,81.53
2022-11-13T09:36:22.459Z,99.47
2022-11-13T09:39:08.169Z,68.57
2022-11-13T09:41:59.239Z,64.37
2022-11-13T09:44:50.466Z,71.23
2022-11-13T09:47:37.782Z,73.43
2022-11-13T09:50:24.879Z,75.13
2022-11-13T09:53:12.007Z,113.23
2022-11-13T09:56:01.892Z,83.17
2022-11-13T09:58:47.328Z,74.13
2022-11-13T10:01:51.559Z,60.03
2022-11-13T10:04:36.930Z,59.37
2022-11-13T10:07:45.228Z,64.57
2022-11-13T10:10:48.271Z,70.23
2022-11-13T10:13:40.481Z,64.27
2022-11-13T10:16:48.308Z,68.73
2022-11-13T10:19:33.482Z,59.57
2022-11-13T10:22:37.057Z,66.07
2022-11-13T10:25:23.989Z,71.00
2022-11-13T10:28:43.168Z,68.50
2022-11-13T10:31:18.252Z,68.30
2022-11-13T10:34:03.945Z,64.50
2022-11-13T10:36:56.114Z,60.13
2022-11-13T10:39:42.554Z,63.37
2022-11-13T10:42:29.417Z,70.57
2022-11-13T10:45:16.762Z,65.23
2022-11-13T10:48:04.766Z,73.17
2022-11-13T10:50:54.319Z,65.60
2022-11-13T10:53:41.437Z,60.47
2022-11-13T10:56:31.821Z,62.67
2022-11-13T10:59:18.387Z,59.13
2022-11-13T11:02:09.861Z,73.63
2022-11-13T11:05:05.655Z,62.57
2022-11-13T11:07:51.289Z,56.10
2022-11-13T11:10:57.089Z,52.03
2022-11-13T11:13:42.368Z,59.47
2022-11-13T11:16:27.890Z,45.03
2022-11-13T11:19:14.358Z,53.10
2022-11-13T11:22:09.834Z,56.50
2022-11-13T11:24:57.713Z,55.60
2022-11-13T11:27:43.229Z,52.30
2022-11-13T11:30:32.007Z,52.23
2022-11-13T11:33:23.615Z,52.97
2022-11-13T11:36:12.138Z,49.23
2022-11-13T11:39:06.640Z,54.40
2022-11-13T11:41:57.923Z,44.93
2022-11-13T11:44:43.411Z,58.93
2022-11-13T11:47:29.199Z,46.37
2022-11-13T11:50:15.674Z,45.67
2022-11-13T11:53:06.566Z,47.77
2022-11-13T11:56:04.606Z,48.73
2022-11-13T11:59:08.915Z,45.00
2022-11-13T12:02:06.249Z,46.33
2022-11-13T12:05:10.387Z,48.57
2022-11-13T12:07:57.063Z,49.93
2022-11-13T12:10:48.585Z,46.23
2022-11-13T12:13:36.902Z,42.90
2022-11-13T12:16:25.025Z,46.40
2022-11-13T12:19:29.379Z,51.80
2022-11-13T12:22:39.587Z,41.23
2022-11-13T12:25:28.001Z,39.93
2022-11-13T12:28:25.564Z,42.23
2022-11-13T12:31:10.827Z,42.90
2022-11-13T12:34:02.722Z,42.73
2022-11-13T12:36:48.955Z,39.73
2022-11-13T12:39:45.879Z,42.40
2022-11-13T12:42:36.530Z,41.30
2022-11-13T12:45:21.918Z,40.60
2022-11-13T12:48:16.227Z,36.80
2022-11-13T12:51:05.878Z,42.57
2022-11-13T12:53:53.125Z,36.23
2022-11-13T12:56:38.712Z,36.90
2022-11-13T12:59:31.001Z,37.40
2022-11-13T13:02:35.796Z,39.10
2022-11-13T13:05:39.005Z,40.00
2022-11-13T13:08:45.508Z,40.93
2022-11-13T13:11:51.185Z,37.87
2022-11-13T13:14:54.996Z,36.87
2022-11-13T13:17:41.254Z,40.10
2022-11-13T13:20:37.415Z,40.57
2022-11-13T13:23:30.376Z,40.47
2022-11-13T13:26:29.123Z,37.63
2022-11-13T13:29:17.785Z,35.57
2022-11-13T13:32:21.489Z,40.37
2022-11-13T13:35:36.493Z,36.63
2022-11-13T13:38:32.120Z,34.83
2022-11-13T13:41:36.116Z,37.67
2022-11-13T13:44:21.234Z,35.07
2022-11-13T13:47:11.893Z,38.33
2022-11-13T13:49:57.777Z,41.13
2022-11-13T13:52:44.347Z,37.40
2022-11-13T13:55:34.127Z,38.67
2022-11-13T13:58:21.187Z,35.73
2022-11-13T14:01:22.979Z,37.60
2022-11-13T14:04:11.320Z,33.03
2022-11-13T14:07:00.642Z,37.27
2022-11-13T14:09:46.119Z,33.67
2022-11-13T14:12:31.672Z,35.33
2022-11-13T14:15:17.296Z,34.80
2022-11-13T14:18:07.423Z,34.97
2022-11-13T14:20:54.348Z,31.00
2022-11-13T14:23:44.250Z,32.93
2022-11-13T14:26:30.059Z,36.07
2022-11-13T14:29:23.882Z,33.50
2022-11-13T14:32:14.507Z,35.77
2022-11-13T14:35:01.323Z,33.33
2022-11-13T14:37:47.390Z,37.47
2022-11-13T14:40:34.076Z,40.70
2022-11-13T14:43:24.169Z,40.73
2022-11-13T14:46:26.729Z,34.37
2022-11-13T14:49:15.221Z,39.77
2022-11-13T14:52:01.506Z,44.27
2022-11-13T14:55:13.509Z,43.57
2022-11-13T14:57:52.839Z,41.33
2022-11-13T15:00:38.695Z,38.20
2022-11-13T15:03:24.546Z,43.27
2022-11-13T15:06:14.551Z,39.57
2022-11-13T15:09:00.903Z,46.60
2022-11-13T15:11:46.366Z,46.70
2022-11-13T15:14:33.203Z,42.53
2022-11-13T15:17:20.456Z,48.63
2022-11-13T15:20:09.655Z,48.33
2022-11-13T15:22:56.581Z,55.40
2022-11-13T15:25:42.735Z,64.23
2022-11-13T15:28:28.117Z,68.47
2022-11-13T15:31:25.607Z,78.30
2022-11-13T15:34:12.177Z,96.93
2022-11-13T15:36:57.522Z,115.13
2022-11-13T15:39:43.257Z,107.23
2022-11-13T15:42:35.680Z,127.32
2022-11-13T15:45:21.441Z,119.50
2022-11-13T15:48:09.702Z,73.90
2022-11-13T15:50:55.217Z,68.03
2022-11-13T15:53:40.661Z,53.83
2022-11-13T15:56:26.482Z,51.57
2022-11-13T15:59:13.549Z,47.97
2022-11-13T16:01:59.270Z,44.37
2022-11-13T16:04:56.102Z,47.90
2022-11-13T16:07:42.795Z,46.67
2022-11-13T16:10:28.289Z,58.13
2022-11-13T16:13:13.840Z,54.23
2022-11-13T16:16:00.141Z,55.33
2022-11-13T16:18:46.221Z,51.97
2022-11-13T16:21:32.553Z,50.00
2022-11-13T16:24:22.737Z,52.67
2022-11-13T16:27:12.727Z,58.70
2022-11-13T16:30:02.271Z,54.37
2022-11-13T16:32:50.912Z,52.27
2022-11-13T16:35:36.563Z,64.10
2022-11-13T16:38:22.231Z,56.90
2022-11-13T16:41:10.101Z,58.03
2022-11-13T16:43:55.516Z,57.47
2022-11-13T16:46:44.891Z,63.40
2022-11-13T16:49:30.181Z,56.50
2022-11-13T16:52:16.107Z,60.97
2022-11-13T16:55:06.297Z,60.73
2022-11-13T16:57:51.964Z,58.77
2022-11-13T17:00:37.372Z,65.27
2022-11-13T17:03:22.719Z,65.17
2022-11-13T17:06:19.346Z,65.37
2022-11-13T17:09:05.172Z,68.57
2022-11-13T17:11:50.415Z,65.40
2022-11-13T17:14:35.854Z,61.57
2022-11-13T17:17:21.138Z,60.20
2022-11-13T17:20:07.070Z,66.77
2022-11-13T17:22:52.805Z,63.67
2022-11-13T17:25:38.306Z,65.47
2022-11-13T17:28:24.013Z,63.40
2022-11-13T17:31:12.105Z,61.33
2022-11-13T17:33:57.684Z,64.97
2022-11-13T17:36:43.319Z,70.27
2022-11-13T17:39:28.596Z,62.77
2022-11-13T17:42:13.942Z,64.83
2022-11-13T17:44:59.177Z,67.60
2022-11-13T17:47:44.566Z,65.97
2022-11-13T17:50:29.962Z,67.77
2022-11-13T17:53:15.462Z,68.00
2022-11-13T17:56:02.302Z,67.30
2022-11-13T17:58:47.872Z,77.47
2022-11-13T18:01:33.971Z,73.20
2022-11-13T18:04:19.930Z,75.27
2022-11-13T18:07:06.216Z,69.27
2022-11-13T18:09:52.631Z,74.60
2022-11-13T18:12:38.956Z,76.40
2022-11-13T18:15:25.623Z,65.20
2022-11-13T18:18:11.982Z,70.63
2022-11-13T18:20:57.872Z,75.67
2022-11-13T18:23:43.535Z,79.33
2022-11-13T18:26:30.466Z,109.73
2022-11-13T18:29:15.838Z,118.20
2022-11-13T18:32:01.496Z,97.73
2022-11-13T18:34:47.420Z,109.37
2022-11-13T18:37:33.528Z,91.23
2022-11-13T18:40:19.295Z,88.33
2022-11-13T18:43:04.883Z,83.17
2022-11-13T18:46:00.577Z,87.53
2022-11-13T18:48:46.381Z,92.00
2022-11-13T18:51:35.723Z,82.87
2022-11-13T18:54:21.323Z,80.40
2022-11-13T18:57:06.890Z,87.17
2022-11-13T18:59:53.156Z,83.73
2022-11-13T19:02:39.461Z,90.27
2022-11-13T19:05:24.983Z,86.57
2022-11-13T19:08:11.274Z,84.37
2022-11-13T19:11:03.216Z,82.73
2022-11-13T19:13:49.943Z,84.37
2022-11-13T19:16:37.781Z,79.40
2022-11-13T19:19:23.899Z,83.70
2022-11-13T19:22:09.438Z,80.33
2022-11-13T19:24:55.384Z,86.80
2022-11-13T19:27:41.365Z,77.07
2022-11-13T19:30:28.130Z,84.90
2022-11-13T19:33:14.984Z,78.90
2022-11-13T19:36:05.876Z,84.47
2022-11-13T19:38:52.674Z,89.93
2022-11-13T19:41:38.309Z,81.97
2022-11-13T19:44:23.949Z,88.47
2022-11-13T19:47:09.728Z,79.87
2022-11-13T19:49:55.099Z,72.67
2022-11-13T19:52:40.664Z,78.93
2022-11-13T19:55:26.148Z,80.03
2022-11-13T19:58:11.564Z,84.47
2022-11-13T20:00:57.579Z,82.63
2022-11-13T20:03:44.139Z,87.07
2022-11-13T20:06:31.850Z,82.67
2022-11-13T20:09:17.941Z,78.97
2022-11-13T20:12:03.981Z,90.87
2022-11-13T20:14:50.387Z,111.63
2022-11-13T20:17:36.165Z,113.87
2022-11-13T20:20:22.445Z,95.43
2022-11-13T20:23:07.959Z,108.87
2022-11-13T20:26:04.020Z,85.57
2022-11-13T20:28:49.698Z,84.63
2022-11-13T20:31:35.706Z,82.97
2022-11-13T20:34:21.131Z,76.63
2022-11-13T20:37:06.380Z,77.47
2022-11-13T20:39:52.729Z,74.63
2022-11-13T20:42:38.879Z,77.83
2022-11-13T20:45:24.929Z,83.17
2022-11-13T20:48:11.160Z,74.53
2022-11-13T20:50:56.972Z,83.70
2022-11-13T20:53:43.344Z,77.83
2022-11-13T20:56:29.646Z,67.07
2022-11-13T20:59:15.485Z,75.40
2022-11-13T21:02:01.300Z,68.90
2022-11-13T21:04:46.865Z,74.17
2022-11-13T21:07:33.096Z,76.40
2022-11-13T21:10:18.932Z,74.23
2022-11-13T21:13:05.197Z,72.03
2022-11-13T21:15:50.589Z,69.23
2022-11-13T21:18:37.207Z,72.50
2022-11-13T21:21:23.577Z,78.37
2022-11-13T21:24:09.170Z,73.10
2022-11-13T21:26:55.288Z,66.93
2022-11-13T21:29:41.902Z,64.17
2022-11-13T21:32:27.907Z,78.20
2022-11-13T21:35:14.651Z,72.97
2022-11-13T21:38:04.898Z,68.97
2022-11-13T21:41:18.543Z,67.27
2022-11-13T21:44:05.420Z,68.00
2022-11-13T21:46:50.667Z,71.03
2022-11-13T21:49:36.039Z,64.07
2022-11-13T21:52:21.492Z,72.07
2022-11-13T21:55:07.174Z,58.73
2022-11-13T21:57:52.362Z,61.70
2022-11-13T22:00:37.888Z,64.07
2022-11-13T22:03:23.378Z,70.13
2022-11-13T22:06:15.780Z,67.13
2022-11-13T22:09:02.524Z,61.40
2022-11-13T22:11:48.344Z,54.33
2022-11-13T22:14:33.880Z,52.20
2022-11-13T22:17:19.141Z,61.77
2022-11-13T22:20:05.027Z,58.03
2022-11-13T22:22:50.258Z,55.77
2022-11-13T22:25:35.551Z,65.93
2022-11-13T22:28:21.182Z,60.37
2022-11-13T22:31:07.215Z,58.40
2022-11-13T22:33:55.204Z,59.87
2022-11-13T22:36:40.755Z,59.50
2022-11-13T22:39:26.246Z,57.03
2022-11-13T22:42:11.878Z,50.67
2022-11-13T22:44:57.136Z,49.40
2022-11-13T22:47:42.553Z,49.43
2022-11-13T22:50:28.056Z,53.33
2022-11-13T22:53:14.948Z,47.93
2022-11-13T22:56:20.874Z,50.87
2022-11-13T22:59:08.106Z,53.53
2022-11-13T23:01:53.441Z,42.83
2022-11-13T23:04:38.775Z,45.63
2022-11-13T23:07:24.072Z,45.83
2022-11-13T23:10:09.802Z,49.20
2022-11-13T23:12:55.542Z,41.20
2022-11-13T23:15:40.845Z,44.00
2022-11-13T23:18:26.594Z,51.30
2022-11-13T23:21:12.772Z,46.50
2022-11-13T23:23:58.599Z,48.03
2022-11-13T23:26:44.338Z,51.90
2022-11-13T23:29:29.797Z,40.90
2022-11-13T23:32:15.087Z,42.13
2022-11-13T23:35:00.768Z,42.13
2022-11-13T23:37:46.852Z,44.33
2022-11-13T23:40:32.455Z,42.63
2022-11-13T23:43:17.929Z,44.90
2022-11-13T23:46:03.594Z,38.97
2022-11-13T23:48:48.870Z,39.57
2022-11-13T23:51:34.370Z,34.77
2022-11-13T23:54:20.039Z,38.43
2022-11-13T23:57:05.609Z,34.47
2022-11-13T23:59:51.279Z,38.50
